Time;durP1;ratioP1;P1;durP2;ratioP2;P2;SDS_P1;SDS_P2;PMS_P1;PMS_P2;Temp;Humidity;BMP_temperature;BMP_pressure;BME280_temperature;BME280_humidity;BME280_pressure;Samples;Min_cycle;Max_cycle;Signal;HPM_P1;HPM_P2
2023/09/06 00:02:21;;;;;;;5.97;3.00;;;;;;;;;;7300454;19;140655;-82
2023/09/06 00:04:48;;;;;;;7.28;2.85;;;;;;;;;;7299887;19;142577;-83
2023/09/06 00:07:15;;;;;;;5.57;2.55;;;;;;;;;;7300459;19;141752;-83
2023/09/06 00:09:42;;;;;;;6.25;2.70;;;;;;;;;;7301520;19;140471;-83
2023/09/06 00:12:10;;;;;;;5.20;2.38;;;;;;;;;;7300586;19;140699;-83
2023/09/06 00:14:39;;;;;;;7.05;2.95;;;;;;;;;;7299532;19;143080;-83
2023/09/06 00:17:06;;;;;;;4.97;2.75;;;;;;;;;;7299790;19;142873;-83
2023/09/06 00:19:34;;;;;;;4.45;2.50;;;;;;;;;;7299888;19;140685;-82
2023/09/06 00:22:01;;;;;;;4.90;2.72;;;;;;;;;;7300241;19;140610;-80
2023/09/06 00:24:28;;;;;;;3.58;2.30;;;;;;;;;;7298822;19;142232;-81
2023/09/06 00:26:58;;;;;;;4.43;2.35;;;;;;;;;;7298770;19;142924;-81
2023/09/06 00:29:25;;;;;;;5.60;2.87;;;;;;;;;;7300065;19;140706;-80
2023/09/06 00:31:52;;;;;;;4.22;2.28;;;;;;;;;;7299269;19;140799;-81
2023/09/06 00:34:20;;;;;;;4.35;2.65;;;;;;;;;;7298312;19;141962;-80
2023/09/06 00:36:47;;;;;;;4.63;2.30;;;;;;;;;;7299426;19;141619;-80
2023/09/06 00:39:14;;;;;;;5.57;2.78;;;;;;;;;;7299008;19;140670;-80
2023/09/06 00:41:44;;;;;;;3.58;2.17;;;;;;;;;;7299359;19;140623;-80
2023/09/06 00:44:12;;;;;;;5.15;2.65;;;;;;;;;;7299607;19;140852;-81
2023/09/06 00:46:41;;;;;;;5.90;2.67;;;;;;;;;;7299392;19;141568;-81
2023/09/06 00:49:09;;;;;;;5.15;2.55;;;;;;;;;;7304067;19;140563;-80
2023/09/06 00:51:38;;;;;;;4.38;2.60;;;;;;;;;;7299493;19;140540;-80
2023/09/06 00:54:05;;;;;;;4.00;2.33;;;;;;;;;;7302664;19;141968;-80
2023/09/06 00:56:32;;;;;;;4.03;2.20;;;;;;;;;;7302899;19;142984;-81
2023/09/06 00:59:18;;;;;;;3.20;2.10;;;;;;;;;;7299015;19;140723;-81
2023/09/06 01:01:46;;;;;;;4.85;2.20;;;;;;;;;;7301505;19;140404;-80
2023/09/06 01:04:13;;;;;;;3.42;2.45;;;;;;;;;;7300671;19;140831;-80
2023/09/06 01:06:41;;;;;;;3.67;2.17;;;;;;;;;;7300132;19;140858;-81
2023/09/06 01:09:09;;;;;;;3.42;2.40;;;;;;;;;;7298950;19;140537;-81
2023/09/06 01:11:40;;;;;;;3.88;2.20;;;;;;;;;;7297996;19;140648;-81
2023/09/06 01:14:08;;;;;;;4.35;2.42;;;;;;;;;;7300089;19;140745;-81
2023/09/06 01:16:38;;;;;;;3.38;2.17;;;;;;;;;;7298040;19;140818;-81
2023/09/06 01:19:07;;;;;;;3.53;2.40;;;;;;;;;;7300416;19;140444;-81
2023/09/06 01:21:47;;;;;;;3.35;2.30;;;;;;;;;;7298088;19;141833;-80
2023/09/06 01:24:15;;;;;;;6.10;2.38;;;;;;;;;;7302091;19;141055;-80
2023/09/06 01:26:43;;;;;;;2.95;1.90;;;;;;;;;;7298474;19;141899;-80
2023/09/06 01:29:11;;;;;;;3.35;2.30;;;;;;;;;;7298407;19;141146;-80
2023/09/06 01:31:38;;;;;;;3.65;2.30;;;;;;;;;;7298592;19;140573;-80
2023/09/06 01:34:05;;;;;;;3.25;2.05;;;;;;;;;;7297097;19;140496;-81
2023/09/06 01:36:32;;;;;;;3.78;2.25;;;;;;;;;;7297832;19;141565;-81
2023/09/06 01:39:00;;;;;;;2.78;1.90;;;;;;;;;;7297280;19;140650;-81
2023/09/06 01:41:27;;;;;;;4.40;2.05;;;;;;;;;;7298560;19;140731;-81
2023/09/06 01:43:55;;;;;;;4.22;2.20;;;;;;;;;;7297694;19;140974;-80
2023/09/06 01:46:25;;;;;;;4.10;2.33;;;;;;;;;;7302245;19;141272;-81
2023/09/06 01:48:52;;;;;;;2.65;1.90;;;;;;;;;;7305865;19;141036;-80
2023/09/06 01:51:19;;;;;;;3.65;2.00;;;;;;;;;;7305728;19;140562;-79
2023/09/06 01:53:47;;;;;;;3.47;2.13;;;;;;;;;;7304279;19;140563;-79
2023/09/06 01:56:16;;;;;;;3.17;2.03;;;;;;;;;;7305132;19;141616;-80
2023/09/06 01:58:49;;;;;;;2.75;2.05;;;;;;;;;;7306031;19;140705;-84
2023/09/06 02:01:16;;;;;;;5.45;2.33;;;;;;;;;;7303521;19;140622;-80
2023/09/06 02:03:43;;;;;;;2.67;2.05;;;;;;;;;;7303340;19;141733;-80
2023/09/06 02:06:13;;;;;;;;;;;;;;;;;;7306441;19;142794;-80
2023/09/06 02:08:41;;;;;;;2.80;2.00;;;;;;;;;;7303249;19;148300;-80
2023/09/06 02:11:08;;;;;;;3.67;2.17;;;;;;;;;;7305222;19;140705;-81
2023/09/06 02:13:35;;;;;;;4.55;2.20;;;;;;;;;;7304812;19;141589;-80
2023/09/06 02:16:03;;;;;;;2.15;1.80;;;;;;;;;;7302610;19;141940;-79
2023/09/06 02:18:30;;;;;;;2.65;1.88;;;;;;;;;;7304066;19;140431;-80
2023/09/06 02:20:58;;;;;;;3.55;1.92;;;;;;;;;;7304269;19;140532;-80
2023/09/06 02:23:26;;;;;;;3.92;2.00;;;;;;;;;;7301685;19;141253;-80
2023/09/06 02:25:53;;;;;;;3.33;2.25;;;;;;;;;;7302764;19;142095;-79
2023/09/06 02:28:20;;;;;;;2.95;1.75;;;;;;;;;;7303295;19;140726;-80
2023/09/06 02:30:47;;;;;;;2.25;1.90;;;;;;;;;;7304669;19;140963;-78
2023/09/06 02:33:17;;;;;;;2.80;1.95;;;;;;;;;;7303406;19;140920;-83
2023/09/06 02:35:45;;;;;;;4.10;2.15;;;;;;;;;;7300623;19;146061;-82
2023/09/06 02:38:14;;;;;;;3.03;2.00;;;;;;;;;;7303357;19;140418;-82
2023/09/06 02:40:41;;;;;;;3.85;2.38;;;;;;;;;;7304732;19;140666;-82
2023/09/06 02:43:10;;;;;;;2.55;1.65;;;;;;;;;;7302698;19;141800;-79
2023/09/06 02:45:38;;;;;;;2.40;1.65;;;;;;;;;;7302875;19;143536;-82
2023/09/06 02:48:07;;;;;;;3.83;2.00;;;;;;;;;;7303036;19;140658;-82
2023/09/06 02:50:37;;;;;;;3.20;1.80;;;;;;;;;;7302792;19;140807;-81
2023/09/06 02:53:04;;;;;;;2.67;1.90;;;;;;;;;;7302239;19;140718;-82
2023/09/06 02:55:35;;;;;;;2.85;2.15;;;;;;;;;;7301764;19;142548;-82
2023/09/06 02:58:02;;;;;;;2.40;1.70;;;;;;;;;;7301742;19;140324;-82
2023/09/06 03:00:30;;;;;;;3.28;1.90;;;;;;;;;;7302544;19;140623;-83
2023/09/06 03:03:06;;;;;;;3.42;1.80;;;;;;;;;;7302664;19;141148;-82
2023/09/06 03:05:35;;;;;;;2.35;1.80;;;;;;;;;;7301975;19;143270;-83
2023/09/06 03:08:02;;;;;;;2.88;1.73;;;;;;;;;;7302800;19;140587;-82
2023/09/06 03:10:33;;;;;;;2.38;1.70;;;;;;;;;;7302241;19;140636;-82
2023/09/06 03:13:00;;;;;;;3.38;1.88;;;;;;;;;;7301301;19;142684;-83
2023/09/06 03:15:28;;;;;;;2.78;1.73;;;;;;;;;;7302138;19;143393;-83
2023/09/06 03:18:02;;;;;;;1.90;1.67;;;;;;;;;;7302070;19;140583;-82
2023/09/06 03:20:42;;;;;;;3.38;1.83;;;;;;;;;;7303476;19;140528;-82
2023/09/06 03:26:30;;;;;;;2.50;2.03;;;;;;;;;;7290999;19;141941;-83
2023/09/06 03:28:57;;;;;;;2.33;1.70;;;;;;;;;;7301364;19;140512;-82
2023/09/06 03:31:26;;;;;;;1.90;1.60;;;;;;;;;;7303631;19;140842;-83
2023/09/06 03:34:03;;;;;;;2.63;1.67;;;;;;;;;;7300914;19;141009;-82
2023/09/06 03:36:31;;;;;;;2.22;1.70;;;;;;;;;;7301214;19;143497;-82
2023/09/06 03:39:00;;;;;;;2.47;1.90;;;;;;;;;;7301523;19;140691;-81
2023/09/06 03:41:27;;;;;;;2.38;1.73;;;;;;;;;;7301649;19;141474;-83
2023/09/06 03:43:54;;;;;;;2.58;1.85;;;;;;;;;;7302064;19;140617;-82
2023/09/06 03:46:22;;;;;;;3.25;2.10;;;;;;;;;;7300032;19;140817;-81
2023/09/06 03:48:49;;;;;;;2.05;1.55;;;;;;;;;;7302371;19;140610;-82
2023/09/06 03:51:18;;;;;;;2.47;1.73;;;;;;;;;;7302713;19;140616;-81
2023/09/06 03:53:47;;;;;;;2.53;1.50;;;;;;;;;;7301989;19;140925;-81
2023/09/06 03:56:14;;;;;;;2.28;1.73;;;;;;;;;;7301158;19;140795;-81
2023/09/06 03:58:42;;;;;;;2.90;1.83;;;;;;;;;;7301724;19;140563;-83
2023/09/06 04:01:10;;;;;;;2.22;1.80;;;;;;;;;;7300084;19;141500;-83
2023/09/06 04:03:41;;;;;;;2.17;1.60;;;;;;;;;;7300438;19;140668;-84
2023/09/06 04:06:10;;;;;;;2.38;1.60;;;;;;;;;;7300071;19;143136;-84
2023/09/06 04:08:48;;;;;;;1.83;1.50;;;;;;;;;;7297885;19;140600;-85
2023/09/06 04:11:16;;;;;;;2.33;1.80;;;;;;;;;;7299745;19;140504;-85
2023/09/06 04:13:44;;;;;;;2.28;1.73;;;;;;;;;;7301090;19;142140;-85
2023/09/06 04:16:11;;;;;;;2.50;1.80;;;;;;;;;;7299404;19;142410;-84
2023/09/06 04:18:41;;;;;;;1.85;1.48;;;;;;;;;;7300108;19;140613;-85
2023/09/06 04:21:09;;;;;;;2.15;1.80;;;;;;;;;;7302549;19;140821;-84
2023/09/06 04:23:39;;;;;;;2.90;1.90;;;;;;;;;;7299372;19;141264;-84
2023/09/06 04:26:07;;;;;;;2.80;1.73;;;;;;;;;;7299591;19;141123;-84
2023/09/06 04:28:35;;;;;;;2.13;1.63;;;;;;;;;;7299031;19;140763;-84
2023/09/06 04:31:04;;;;;;;2.03;1.48;;;;;;;;;;7299725;19;140843;-83
2023/09/06 04:33:31;;;;;;;2.17;1.70;;;;;;;;;;7299539;19;140908;-84
2023/09/06 04:35:58;;;;;;;2.30;1.70;;;;;;;;;;7299045;19;143215;-84
2023/09/06 04:38:25;;;;;;;2.30;1.75;;;;;;;;;;7299486;19;140813;-81
2023/09/06 04:40:54;;;;;;;2.80;1.65;;;;;;;;;;7299040;19;140491;-81
2023/09/06 04:43:22;;;;;;;1.55;1.45;;;;;;;;;;7299740;19;142833;-83
2023/09/06 04:45:50;;;;;;;2.15;1.80;;;;;;;;;;7299282;19;142987;-82
2023/09/06 04:48:17;;;;;;;2.35;1.75;;;;;;;;;;7299447;19;140637;-84
2023/09/06 04:50:45;;;;;;;2.35;1.70;;;;;;;;;;7298633;19;140585;-84
2023/09/06 04:53:34;;;;;;;1.85;1.38;;;;;;;;;;7298645;19;141883;-84
2023/09/06 04:56:05;;;;;;;2.67;1.60;;;;;;;;;;7298855;19;142975;-85
2023/09/06 04:58:33;;;;;;;;;;;;;;;;;;7299247;19;140628;-84
2023/09/06 05:01:10;;;;;;;1.80;1.55;;;;;;;;;;7299130;19;140534;-83
2023/09/06 05:06:39;;;;;;;2.53;1.70;;;;;;;;;;7300010;19;140887;-82
2023/09/06 05:09:07;;;;;;;2.50;1.95;;;;;;;;;;7298948;19;140682;-82
2023/09/06 05:11:34;;;;;;;2.20;1.70;;;;;;;;;;7298971;19;140635;-81
2023/09/06 05:14:04;;;;;;;2.17;1.40;;;;;;;;;;7298747;19;141469;-82
2023/09/06 05:16:46;;;;;;;3.17;1.90;;;;;;;;;;7298140;19;141740;-83
2023/09/06 05:19:14;;;;;;;2.05;1.48;;;;;;;;;;7299429;19;140465;-84
2023/09/06 05:21:44;;;;;;;1.60;1.50;;;;;;;;;;7307185;19;140459;-83
2023/09/06 05:24:12;;;;;;;3.15;1.70;;;;;;;;;;7304645;19;140631;-83
2023/09/06 05:26:39;;;;;;;2.25;1.60;;;;;;;;;;7304120;19;142913;-83
2023/09/06 05:29:11;;;;;;;2.05;1.70;;;;;;;;;;7304082;19;140859;-82
2023/09/06 05:31:38;;;;;;;2.13;1.53;;;;;;;;;;7305331;19;140477;-80
2023/09/06 05:34:06;;;;;;;2.47;1.60;;;;;;;;;;7304714;19;141780;-81
2023/09/06 05:36:33;;;;;;;2.42;1.63;;;;;;;;;;7304668;19;140910;-79
2023/09/06 05:39:00;;;;;;;1.92;1.50;;;;;;;;;;7305660;19;140599;-80
2023/09/06 05:41:27;;;;;;;1.63;1.40;;;;;;;;;;7306977;19;140589;-80
2023/09/06 05:47:27;;;;;;;1.88;1.40;;;;;;;;;;7309220;19;141015;-80
2023/09/06 05:49:58;;;;;;;1.95;1.48;;;;;;;;;;7306040;19;140427;-80
2023/09/06 06:02:19;;;;;;;1.75;1.55;;;;;;;;;;7303799;19;140568;-81
2023/09/06 06:04:58;;;;;;;2.75;1.80;;;;;;;;;;7305041;19;140635;-81
2023/09/06 06:07:57;;;;;;;2.70;1.65;;;;;;;;;;7303500;19;140386;-79
2023/09/06 06:10:25;;;;;;;2.13;1.88;;;;;;;;;;7304804;19;140867;-84
2023/09/06 06:12:52;;;;;;;2.10;1.40;;;;;;;;;;7304636;19;140710;-81
2023/09/06 06:15:19;;;;;;;1.80;1.50;;;;;;;;;;7305400;19;140881;-79
2023/09/06 06:17:47;;;;;;;2.55;1.88;;;;;;;;;;7305103;19;142189;-79
2023/09/06 06:20:17;;;;;;;3.97;1.58;;;;;;;;;;7310891;19;141488;-88
2023/09/06 06:23:18;;;;;;;2.45;1.50;;;;;;;;;;7304949;19;140522;-79
2023/09/06 06:25:49;;;;;;;2.47;1.70;;;;;;;;;;7306100;19;140350;-80
2023/09/06 06:28:16;;;;;;;1.52;1.42;;;;;;;;;;7304332;19;141281;-80
2023/09/06 06:30:46;;;;;;;1.77;1.60;;;;;;;;;;7303368;19;141842;-82
2023/09/06 06:33:13;;;;;;;1.52;1.42;;;;;;;;;;7304713;19;140808;-81
2023/09/06 06:35:40;;;;;;;1.42;1.30;;;;;;;;;;7304696;19;140767;-80
2023/09/06 06:38:14;;;;;;;2.78;1.63;;;;;;;;;;7304475;19;141246;-79
2023/09/06 06:40:41;;;;;;;3.55;1.45;;;;;;;;;;7304685;19;142389;-80
2023/09/06 06:43:56;;;;;;;1.60;1.50;;;;;;;;;;7303532;19;141432;-80
2023/09/06 06:46:29;;;;;;;2.13;1.42;;;;;;;;;;7305925;19;143522;-80
2023/09/06 06:48:56;;;;;;;1.63;1.48;;;;;;;;;;7304543;19;141272;-80
2023/09/06 06:51:28;;;;;;;1.88;1.33;;;;;;;;;;7303018;19;141491;-80
2023/09/06 06:53:55;;;;;;;1.55;1.20;;;;;;;;;;7305777;19;140786;-80
2023/09/06 06:56:23;;;;;;;1.83;1.58;;;;;;;;;;7303875;19;140697;-80
2023/09/06 06:58:58;;;;;;;2.28;1.60;;;;;;;;;;7303201;19;141977;-80
2023/09/06 07:01:27;;;;;;;3.63;1.85;;;;;;;;;;7304240;19;141603;-79
2023/09/06 07:03:57;;;;;;;3.53;1.75;;;;;;;;;;7303188;19;140764;-79
2023/09/06 07:06:24;;;;;;;1.60;1.50;;;;;;;;;;7303903;19;140600;-78
2023/09/06 07:08:52;;;;;;;3.70;2.00;;;;;;;;;;7302273;19;141350;-76
2023/09/06 07:11:20;;;;;;;3.65;1.80;;;;;;;;;;7303494;19;141820;-77
2023/09/06 07:13:48;;;;;;;4.72;1.95;;;;;;;;;;7302107;19;141033;-75
2023/09/06 07:16:16;;;;;;;4.03;2.00;;;;;;;;;;7303217;19;140334;-74
2023/09/06 07:18:43;;;;;;;5.53;2.03;;;;;;;;;;7302352;19;142223;-80
2023/09/06 07:21:10;;;;;;;2.05;1.65;;;;;;;;;;7304473;19;142620;-80
2023/09/06 07:23:37;;;;;;;4.15;2.05;;;;;;;;;;7307660;19;140483;-79
2023/09/06 07:26:05;;;;;;;2.85;1.77;;;;;;;;;;7300410;19;142294;-82
2023/09/06 07:28:39;;;;;;;2.00;1.80;;;;;;;;;;7302811;19;141002;-77
2023/09/06 07:31:07;;;;;;;3.20;1.90;;;;;;;;;;7302311;19;142060;-80
2023/09/06 07:36:39;;;;;;;7.40;2.70;;;;;;;;;;7305273;19;141089;-80
2023/09/06 07:39:17;;;;;;;5.15;2.88;;;;;;;;;;7303444;19;141391;-78
2023/09/06 07:41:57;;;;;;;6.68;3.08;;;;;;;;;;7305071;19;140637;-79
2023/09/06 07:44:24;;;;;;;;;;;;;;;;;;7301951;19;140599;-74
2023/09/06 07:46:55;;;;;;;10.07;3.80;;;;;;;;;;7296560;19;144843;-75
2023/09/06 07:49:33;;;;;;;10.20;4.38;;;;;;;;;;7300261;19;141989;31
2023/09/06 07:52:04;;;;;;;11.75;3.95;;;;;;;;;;7297646;19;142737;-76
2023/09/06 07:54:42;;;;;;;8.73;3.78;;;;;;;;;;7298469;19;140595;-76
2023/09/06 07:57:13;;;;;;;10.00;3.83;;;;;;;;;;7301313;19;140781;-76
2023/09/06 07:59:40;;;;;;;11.38;4.10;;;;;;;;;;7299948;19;141773;-76
2023/09/06 08:02:16;;;;;;;14.60;4.18;;;;;;;;;;7302508;19;142401;-77
2023/09/06 08:04:51;;;;;;;10.85;3.83;;;;;;;;;;7303719;19;140676;-75
2023/09/06 08:07:22;;;;;;;10.95;4.40;;;;;;;;;;7301235;19;140858;-77
2023/09/06 08:09:49;;;;;;;9.88;4.03;;;;;;;;;;7304376;19;140621;-75
2023/09/06 08:12:16;;;;;;;7.00;3.55;;;;;;;;;;7302192;19;140835;-79
2023/09/06 08:14:43;;;;;;;8.88;3.35;;;;;;;;;;7302736;19;140575;-78
2023/09/06 08:17:11;;;;;;;10.93;3.78;;;;;;;;;;7303792;19;140762;-78
2023/09/06 08:19:41;;;;;;;9.48;4.20;;;;;;;;;;7303744;19;140927;-78
2023/09/06 08:22:08;;;;;;;9.35;3.85;;;;;;;;;;7303412;19;142215;-76
2023/09/06 08:24:35;;;;;;;9.10;3.80;;;;;;;;;;7303581;19;140620;-77
2023/09/06 08:30:11;;;;;;;10.10;3.85;;;;;;;;;;7302116;19;140879;-79
2023/09/06 08:36:43;;;;;;;8.20;4.10;;;;;;;;;;7302264;19;141364;-89
2023/09/06 08:42:01;;;;;;;13.63;4.00;;;;;;;;;;7300518;19;140825;-77
2023/09/06 08:44:44;;;;;;;8.98;4.10;;;;;;;;;;7302500;19;141909;-76
2023/09/06 08:47:12;;;;;;;10.30;3.80;;;;;;;;;;7300079;19;140809;-76
2023/09/06 08:49:39;;;;;;;11.43;3.80;;;;;;;;;;7303426;19;140490;-77
2023/09/06 08:52:09;;;;;;;9.27;3.30;;;;;;;;;;7305302;19;140823;-80
2023/09/06 08:54:55;;;;;;;8.10;3.25;;;;;;;;;;7306030;19;141044;-79
2023/09/06 08:57:23;;;;;;;7.90;3.08;;;;;;;;;;7312151;19;140689;-80
2023/09/06 09:05:44;;;;;;;5.32;2.78;;;;;;;;;;7309825;19;141049;-83
2023/09/06 09:08:11;;;;;;;6.13;2.80;;;;;;;;;;7309147;19;140206;-80
2023/09/06 09:10:39;;;;;;;4.78;2.70;;;;;;;;;;7306743;19;141391;-78
2023/09/06 09:13:10;;;;;;;6.05;2.72;;;;;;;;;;7304330;19;141284;-76
2023/09/06 09:15:37;;;;;;;5.88;2.92;;;;;;;;;;7305305;19;140674;-75
2023/09/06 09:18:11;;;;;;;7.28;2.95;;;;;;;;;;7304740;19;140670;-80
2023/09/06 09:23:50;;;;;;;5.18;2.70;;;;;;;;;;7341778;19;140665;-81
2023/09/06 09:26:19;;;;;;;7.43;2.80;;;;;;;;;;7337427;19;141741;-84
2023/09/06 09:28:47;;;;;;;4.97;2.70;;;;;;;;;;7336773;19;141164;-82
2023/09/06 09:31:17;;;;;;;4.45;2.17;;;;;;;;;;7337824;19;140941;-84
2023/09/06 09:33:50;;;;;;;5.45;2.90;;;;;;;;;;7336108;19;140709;-82
2023/09/06 09:36:17;;;;;;;5.85;2.38;;;;;;;;;;7337944;19;140802;-87
2023/09/06 09:38:49;;;;;;;8.98;2.50;;;;;;;;;;7334521;19;141320;-85
2023/09/06 09:41:17;;;;;;;4.32;2.40;;;;;;;;;;7335257;19;140954;-82
2023/09/06 09:46:25;;;;;;;5.47;2.53;;;;;;;;;;7335318;19;141337;-80
2023/09/06 09:48:53;;;;;;;4.13;2.30;;;;;;;;;;7336930;19;140803;-81
2023/09/06 09:51:21;;;;;;;3.55;2.22;;;;;;;;;;7335451;19;142036;-86
2023/09/06 09:53:50;;;;;;;5.18;2.25;;;;;;;;;;7334168;19;140776;-85
2023/09/06 09:56:21;;;;;;;4.93;2.30;;;;;;;;;;7336959;19;140663;-80
2023/09/06 09:58:51;;;;;;;4.40;2.60;;;;;;;;;;7335170;19;141998;-78
2023/09/06 10:01:20;;;;;;;5.13;2.40;;;;;;;;;;7334874;19;142648;-80
2023/09/06 10:03:48;;;;;;;5.43;2.10;;;;;;;;;;7336520;19;141093;-80
2023/09/06 10:06:16;;;;;;;6.78;2.40;;;;;;;;;;7334999;19;140702;-76
2023/09/06 10:08:45;;;;;;;5.40;2.20;;;;;;;;;;7335525;19;141885;-81
2023/09/06 10:11:13;;;;;;;5.72;2.30;;;;;;;;;;7334827;19;142547;-78
2023/09/06 10:13:40;;;;;;;3.78;2.50;;;;;;;;;;7334739;19;140617;-85
2023/09/06 10:16:26;;;;;;;3.25;2.10;;;;;;;;;;7333038;19;140433;-81
2023/09/06 10:19:13;;;;;;;4.15;2.58;;;;;;;;;;7332678;19;141729;-85
2023/09/06 10:21:43;;;;;;;4.65;2.50;;;;;;;;;;7334032;19;142891;-78
2023/09/06 10:24:18;;;;;;;5.38;2.80;;;;;;;;;;7335053;19;140589;-77
2023/09/06 10:26:46;;;;;;;4.40;2.50;;;;;;;;;;7335988;19;140622;-78
2023/09/06 10:29:27;;;;;;;3.42;2.30;;;;;;;;;;7335043;19;141817;-80
2023/09/06 10:31:59;;;;;;;3.83;2.50;;;;;;;;;;7336450;19;141978;-81
2023/09/06 10:34:33;;;;;;;5.07;2.60;;;;;;;;;;7314646;19;140914;-80
2023/09/06 10:37:06;;;;;;;4.45;2.90;;;;;;;;;;7313101;19;140735;-81
2023/09/06 10:39:33;;;;;;;4.57;2.65;;;;;;;;;;7310538;19;140631;-78
2023/09/06 10:42:11;;;;;;;5.57;3.03;;;;;;;;;;7315092;19;141896;-76
2023/09/06 10:47:59;;;;;;;8.35;2.60;;;;;;;;;;7309506;19;140669;31
2023/09/06 10:50:33;;;;;;;5.22;2.55;;;;;;;;;;7308112;19;140714;-82
2023/09/06 10:55:43;;;;;;;5.47;2.53;;;;;;;;;;7305917;19;140786;-91
2023/09/06 10:58:12;;;;;;;4.13;2.50;;;;;;;;;;7306416;19;140698;-84
2023/09/06 11:00:42;;;;;;;5.13;2.47;;;;;;;;;;7304224;19;140945;-84
2023/09/06 11:06:10;;;;;;;5.28;2.38;;;;;;;;;;7304779;19;140467;-91
2023/09/06 11:08:38;;;;;;;6.63;2.67;;;;;;;;;;7304026;19;140639;-83
2023/09/06 11:11:23;;;;;;;8.50;3.05;;;;;;;;;;7306222;19;141797;-83
2023/09/06 11:13:50;;;;;;;7.25;2.95;;;;;;;;;;7301789;19;143670;-85
2023/09/06 11:16:21;;;;;;;5.45;2.88;;;;;;;;;;7306126;19;140476;-82
2023/09/06 11:18:56;;;;;;;4.95;2.92;;;;;;;;;;7305037;19;142406;-82
2023/09/06 11:21:44;;;;;;;6.35;3.10;;;;;;;;;;7313835;19;141995;-96
2023/09/06 11:24:31;;;;;;;7.28;2.67;;;;;;;;;;7310119;19;140825;-84
2023/09/06 11:27:03;;;;;;;8.05;3.13;;;;;;;;;;7304782;19;140925;31
2023/09/06 11:29:31;;;;;;;5.60;2.80;;;;;;;;;;7304770;19;141078;-85
2023/09/06 11:32:17;;;;;;;5.03;2.67;;;;;;;;;;7303873;19;141321;-86
2023/09/06 11:34:44;;;;;;;6.22;3.15;;;;;;;;;;7303354;19;140895;-82
2023/09/06 11:37:19;;;;;;;5.47;2.83;;;;;;;;;;7303247;19;140803;-88
2023/09/06 11:39:55;;;;;;;6.55;3.20;;;;;;;;;;7303240;19;140640;-84
2023/09/06 11:42:31;;;;;;;4.50;3.00;;;;;;;;;;7302862;19;142613;-87
2023/09/06 11:45:35;;;;;;;5.38;2.55;;;;;;;;;;7296980;19;140732;-82
2023/09/06 11:48:09;;;;;;;4.35;2.63;;;;;;;;;;7302413;19;140564;-81
2023/09/06 11:50:51;;;;;;;5.25;2.97;;;;;;;;;;7302061;19;140868;-79
2023/09/06 11:53:25;;;;;;;7.43;3.10;;;;;;;;;;7300239;19;141750;-81
2023/09/06 11:56:51;;;;;;;7.20;2.90;;;;;;;;;;7300901;19;140929;-84
2023/09/06 11:59:37;;;;;;;5.60;2.58;;;;;;;;;;7300916;19;141900;-83
2023/09/06 12:02:06;;;;;;;5.82;2.35;;;;;;;;;;7300811;19;140882;-82
2023/09/06 12:04:40;;;;;;;6.00;2.70;;;;;;;;;;7302224;19;140672;-82
2023/09/06 12:13:47;;;;;;;6.90;3.00;;;;;;;;;;7297600;19;141148;-83
2023/09/06 12:50:53;;;;;;;4.05;2.63;;;;;;;;;;7292185;19;141528;-79
2023/09/06 13:10:33;;;;;;;6.82;3.60;;;;;;;;;;7296620;19;140978;-88
2023/09/06 13:19:12;;;;;;;33.42;23.10;;;;;;;;;;7271352;19;142548;31
2023/09/06 13:41:20;;;;;;;131.88;61.13;;;;;;;;;;7294896;19;144449;-89
2023/09/06 13:47:48;;;;;;;117.15;54.45;;;;;;;;;;7276087;19;143264;-88
2023/09/06 13:53:20;;;;;;;107.70;46.40;;;;;;;;;;7288892;19;141563;-85
2023/09/06 13:58:41;;;;;;;93.90;43.55;;;;;;;;;;7301204;19;140740;-84
2023/09/06 14:18:06;;;;;;;70.88;32.38;;;;;;;;;;7241889;19;142520;31
2023/09/06 14:21:00;;;;;;;70.05;30.17;;;;;;;;;;7304266;19;140734;-85
2023/09/06 14:23:38;;;;;;;64.63;29.48;;;;;;;;;;7301921;19;140692;31
2023/09/06 14:36:00;;;;;;;55.70;25.42;;;;;;;;;;7301615;19;140721;-80
2023/09/06 14:41:33;;;;;;;50.42;23.60;;;;;;;;;;7288017;19;146361;-82
2023/09/06 14:47:28;;;;;;;45.38;21.52;;;;;;;;;;7305931;19;141599;-83
2023/09/06 14:50:05;;;;;;;49.08;21.10;;;;;;;;;;7304346;19;140706;-79
2023/09/06 14:52:45;;;;;;;;;;;;;;;;;;;;;
2023/09/06 14:58:39;;;;;;;45.78;20.00;;;;;;;;;;7287251;19;143269;-75
2023/09/06 15:01:06;;;;;;;45.30;21.08;;;;;;;;;;7301674;19;141176;-81
2023/09/06 15:04:07;;;;;;;45.72;19.58;;;;;;;;;;7304181;19;140672;-89
2023/09/06 15:06:35;;;;;;;45.08;20.25;;;;;;;;;;7304845;19;141193;-77
2023/09/06 15:12:27;;;;;;;37.13;17.25;;;;;;;;;;7307391;19;140559;-87
2023/09/06 15:14:58;;;;;;;38.15;17.15;;;;;;;;;;7303430;19;140494;-82
2023/09/06 15:30:34;;;;;;;33.45;16.00;;;;;;;;;;6910756;19;3846188;-77
2023/09/06 15:33:02;;;;;;;36.28;16.95;;;;;;;;;;7334659;19;140502;-77
2023/09/06 15:35:29;;;;;;;36.65;15.73;;;;;;;;;;7336679;19;140806;-76
2023/09/06 15:38:03;;;;;;;36.30;16.10;;;;;;;;;;7326062;19;147054;-79
2023/09/06 15:40:31;;;;;;;33.45;15.32;;;;;;;;;;7334943;19;140555;-76
2023/09/06 15:42:58;;;;;;;31.92;15.20;;;;;;;;;;7334073;19;140896;-77
2023/09/06 15:45:25;;;;;;;32.55;15.50;;;;;;;;;;7334928;19;141785;-81
2023/09/06 15:47:53;;;;;;;29.85;13.57;;;;;;;;;;7335432;19;142913;-84
2023/09/06 15:50:20;;;;;;;30.73;14.68;;;;;;;;;;7335345;19;140502;-75
2023/09/06 15:52:48;;;;;;;31.80;14.45;;;;;;;;;;7335908;19;140825;-77
2023/09/06 15:55:16;;;;;;;26.77;13.40;;;;;;;;;;7333682;19;141171;-81
2023/09/06 15:57:43;;;;;;;31.15;13.98;;;;;;;;;;7332864;19;142562;-75
2023/09/06 16:00:11;;;;;;;28.00;12.68;;;;;;;;;;7334677;19;142277;-73
2023/09/06 16:02:57;;;;;;;28.02;12.13;;;;;;;;;;7335288;19;140370;-74
2023/09/06 16:05:25;;;;;;;27.73;13.13;;;;;;;;;;7334828;19;140646;-73
2023/09/06 16:07:53;;;;;;;30.85;12.63;;;;;;;;;;7334918;19;141284;-73
2023/09/06 16:10:20;;;;;;;23.48;12.40;;;;;;;;;;7334845;19;140473;-74
2023/09/06 16:12:47;;;;;;;27.48;12.48;;;;;;;;;;7334731;19;140763;-73
2023/09/06 16:15:16;;;;;;;30.85;12.43;;;;;;;;;;7336207;19;142282;-79
2023/09/06 16:17:44;;;;;;;25.38;11.70;;;;;;;;;;7334078;19;142766;-79
2023/09/06 16:20:12;;;;;;;30.77;12.43;;;;;;;;;;7334976;19;140483;-73
2023/09/06 16:22:39;;;;;;;35.15;12.23;;;;;;;;;;7334644;19;140464;-76
2023/09/06 16:25:07;;;;;;;25.35;11.55;;;;;;;;;;7333755;19;141677;-77
2023/09/06 16:27:34;;;;;;;28.02;12.45;;;;;;;;;;7334327;19;142014;-74
2023/09/06 16:30:05;;;;;;;30.30;10.70;;;;;;;;;;7334093;19;140753;-73
2023/09/06 16:38:57;;;;;;;32.75;11.15;;;;;;;;;;7252792;19;143316;-78
2023/09/06 16:41:31;;;;;;;30.48;11.20;;;;;;;;;;7275793;19;142637;31
2023/09/06 16:43:59;;;;;;;34.80;11.10;;;;;;;;;;7305508;19;140562;-77
2023/09/06 16:46:57;;;;;;;25.25;10.02;;;;;;;;;;7303803;19;141446;-74
2023/09/06 16:49:25;;;;;;;25.48;9.15;;;;;;;;;;7305179;19;142550;-78
2023/09/06 16:51:53;;;;;;;21.48;8.20;;;;;;;;;;7303115;19;140807;-77
2023/09/06 16:54:20;;;;;;;22.52;8.32;;;;;;;;;;7303297;19;140743;-78
2023/09/06 16:56:48;;;;;;;18.33;7.00;;;;;;;;;;7306181;19;140923;-77
2023/09/06 16:59:17;;;;;;;14.98;6.57;;;;;;;;;;7304067;19;141913;-78
2023/09/06 17:01:47;;;;;;;17.30;6.45;;;;;;;;;;7305683;19;140518;-76
2023/09/06 17:04:15;;;;;;;12.75;6.13;;;;;;;;;;7304227;19;140490;-77
2023/09/06 17:06:51;;;;;;;11.52;5.95;;;;;;;;;;7302420;19;141722;-76
2023/09/06 17:09:37;;;;;;;14.77;6.65;;;;;;;;;;7304992;19;141198;-78
2023/09/06 17:24:41;;;;;;;11.30;4.80;;;;;;;;;;7243836;19;144034;-77
2023/09/06 17:30:31;;;;;;;7.60;3.88;;;;;;;;;;7303046;19;143446;-77
2023/09/06 17:33:14;;;;;;;10.55;4.10;;;;;;;;;;7304332;19;141004;-79
2023/09/06 17:35:43;;;;;;;11.73;4.80;;;;;;;;;;7304328;19;140518;-78
2023/09/06 17:38:18;;;;;;;9.18;4.95;;;;;;;;;;7304350;19;140675;-80
2023/09/06 17:40:51;;;;;;;10.88;4.30;;;;;;;;;;7303870;19;141191;-81
2023/09/06 17:43:24;;;;;;;8.52;4.28;;;;;;;;;;7301797;19;141042;-81
2023/09/06 17:46:04;;;;;;;8.93;4.07;;;;;;;;;;7301777;19;140856;-82
2023/09/06 17:48:33;;;;;;;8.75;3.90;;;;;;;;;;7301804;19;140660;-82
2023/09/06 17:58:06;;;;;;;9.60;3.92;;;;;;;;;;7271060;19;144830;-78
2023/09/06 18:00:34;;;;;;;8.07;3.88;;;;;;;;;;7302958;19;140744;-80
2023/09/06 18:03:01;;;;;;;9.68;3.90;;;;;;;;;;7302635;19;140768;-82
2023/09/06 18:05:37;;;;;;;7.35;3.97;;;;;;;;;;7303150;19;141598;-79
2023/09/06 18:11:31;;;;;;;8.73;3.63;;;;;;;;;;7306939;19;141411;-82
2023/09/06 18:14:24;;;;;;;6.13;3.58;;;;;;;;;;7302127;19;141377;-80
2023/09/06 18:20:09;;;;;;;7.43;4.00;;;;;;;;;;7301636;19;141230;-79
2023/09/06 18:22:39;;;;;;;7.63;3.80;;;;;;;;;;7302643;19;140543;-80
2023/09/06 18:25:11;;;;;;;;;;;;;;;;;;7301408;19;140746;-79
2023/09/06 18:27:40;;;;;;;10.30;4.13;;;;;;;;;;7299728;19;160153;-76
2023/09/06 18:30:21;;;;;;;11.15;3.97;;;;;;;;;;7300333;19;140895;-79
2023/09/06 18:33:19;;;;;;;6.25;3.72;;;;;;;;;;7299997;19;143032;-81
2023/09/06 18:35:58;;;;;;;5.53;3.67;;;;;;;;;;7304369;19;142693;-82
2023/09/06 18:38:26;;;;;;;6.97;4.00;;;;;;;;;;7301908;19;140773;-81
2023/09/06 18:44:26;;;;;;;7.45;4.10;;;;;;;;;;7301722;19;140496;-80
2023/09/06 18:46:53;;;;;;;6.07;3.22;;;;;;;;;;7300735;19;141143;-80
2023/09/06 18:49:21;;;;;;;9.23;3.63;;;;;;;;;;7298911;19;143306;-80
2023/09/06 18:55:05;;;;;;;5.88;3.45;;;;;;;;;;7277173;19;143980;-85